sensor_id;sensor_type;location;lat;lon;timestamp;pressure;altitude;pressure_sealevel;temperature;humidity
25759;BME280;13604;52.496;13.456;2023-03-25T00:01:48;99931.56;;;7.24;100.00
25759;BME280;13604;52.496;13.456;2023-03-25T00:04:13;99920.56;;;7.10;100.00
25759;BME280;13604;52.496;13.456;2023-03-25T00:06:41;99936.25;;;7.13;100.00
25759;BME280;13604;52.496;13.456;2023-03-25T00:09:06;99928.19;;;7.07;100.00
25759;BME280;13604;52.496;13.456;2023-03-25T00:11:32;99931.00;;;7.11;100.00
25759;BME280;13604;52.496;13.456;2023-03-25T00:13:57;99926.53;;;7.09;100.00
25759;BME280;13604;52.496;13.456;2023-03-25T00:16:22;99926.28;;;7.03;100.00
25759;BME280;13604;52.496;13.456;2023-03-25T00:18:48;99894.34;;;6.84;100.00
25759;BME280;13604;52.496;13.456;2023-03-25T00:21:13;99912.84;;;6.92;100.00
25759;BME280;13604;52.496;13.456;2023-03-25T00:23:40;99891.56;;;6.79;100.00
25759;BME280;13604;52.496;13.456;2023-03-25T00:26:06;99917.22;;;6.93;100.00
25759;BME280;13604;52.496;13.456;2023-03-25T00:28:34;99916.91;;;6.87;100.00
25759;BME280;13604;52.496;13.456;2023-03-25T00:31:02;99931.50;;;6.85;100.00
25759;BME280;13604;52.496;13.456;2023-03-25T00:33:28;99902.88;;;6.81;100.00
25759;BME280;13604;52.496;13.456;2023-03-25T00:35:54;99928.06;;;6.86;100.00
25759;BME280;13604;52.496;13.456;2023-03-25T00:38:31;99921.28;;;6.88;100.00
25759;BME280;13604;52.496;13.456;2023-03-25T00:41:16;99914.69;;;6.94;100.00
25759;BME280;13604;52.496;13.456;2023-03-25T00:43:43;99925.13;;;6.96;100.00
25759;BME280;13604;52.496;13.456;2023-03-25T00:46:10;99918.47;;;6.83;100.00
25759;BME280;13604;52.496;13.456;2023-03-25T00:48:35;99909.00;;;6.84;100.00
25759;BME280;13604;52.496;13.456;2023-03-25T00:51:00;99930.22;;;6.94;100.00
25759;BME280;13604;52.496;13.456;2023-03-25T00:53:32;99899.25;;;6.78;100.00
25759;BME280;13604;52.496;13.456;2023-03-25T00:55:57;99902.22;;;6.68;100.00
25759;BME280;13604;52.496;13.456;2023-03-25T00:58:22;99927.13;;;6.84;100.00
25759;BME280;13604;52.496;13.456;2023-03-25T01:00:48;99923.97;;;6.71;100.00
25759;BME280;13604;52.496;13.456;2023-03-25T01:03:13;99911.47;;;6.62;100.00
25759;BME280;13604;52.496;13.456;2023-03-25T01:05:39;99924.13;;;6.74;100.00
25759;BME280;13604;52.496;13.456;2023-03-25T01:08:06;99938.88;;;6.77;100.00
25759;BME280;13604;52.496;13.456;2023-03-25T01:10:34;99925.88;;;6.57;100.00
25759;BME280;13604;52.496;13.456;2023-03-25T01:12:59;99932.16;;;6.62;100.00
25759;BME280;13604;52.496;13.456;2023-03-25T01:15:24;99934.59;;;6.59;100.00
25759;BME280;13604;52.496;13.456;2023-03-25T01:17:50;99936.44;;;6.62;100.00
25759;BME280;13604;52.496;13.456;2023-03-25T01:20:15;99936.31;;;6.59;100.00
25759;BME280;13604;52.496;13.456;2023-03-25T01:22:40;99934.91;;;6.66;100.00
25759;BME280;13604;52.496;13.456;2023-03-25T01:25:06;99926.72;;;6.56;100.00
25759;BME280;13604;52.496;13.456;2023-03-25T01:27:32;99918.56;;;6.49;100.00
25759;BME280;13604;52.496;13.456;2023-03-25T01:29:57;99882.44;;;6.32;100.00
25759;BME280;13604;52.496;13.456;2023-03-25T01:32:22;99913.84;;;6.40;100.00
25759;BME280;13604;52.496;13.456;2023-03-25T01:34:48;99912.53;;;6.48;100.00
25759;BME280;13604;52.496;13.456;2023-03-25T01:37:13;99899.94;;;6.56;100.00
25759;BME280;13604;52.496;13.456;2023-03-25T01:39:39;99889.25;;;6.48;100.00
25759;BME280;13604;52.496;13.456;2023-03-25T01:42:04;99886.78;;;6.51;100.00
25759;BME280;13604;52.496;13.456;2023-03-25T01:46:58;99882.13;;;6.44;100.00
25759;BME280;13604;52.496;13.456;2023-03-25T01:49:38;99869.88;;;6.40;100.00
25759;BME280;13604;52.496;13.456;2023-03-25T01:52:09;99887.31;;;6.44;100.00
25759;BME280;13604;52.496;13.456;2023-03-25T01:54:35;99889.31;;;6.50;100.00
25759;BME280;13604;52.496;13.456;2023-03-25T01:57:03;99895.38;;;6.50;100.00
25759;BME280;13604;52.496;13.456;2023-03-25T01:59:30;99895.38;;;6.50;100.00
25759;BME280;13604;52.496;13.456;2023-03-25T02:01:56;99873.03;;;6.34;100.00
25759;BME280;13604;52.496;13.456;2023-03-25T02:04:33;99895.81;;;6.41;100.00
25759;BME280;13604;52.496;13.456;2023-03-25T02:07:03;99882.75;;;6.38;100.00
25759;BME280;13604;52.496;13.456;2023-03-25T02:09:32;99896.78;;;6.43;100.00
25759;BME280;13604;52.496;13.456;2023-03-25T02:11:58;99881.50;;;6.30;100.00
25759;BME280;13604;52.496;13.456;2023-03-25T02:14:30;99856.66;;;6.16;100.00
25759;BME280;13604;52.496;13.456;2023-03-25T02:17:09;99861.00;;;6.35;100.00
25759;BME280;13604;52.496;13.456;2023-03-25T02:19:56;99854.28;;;6.38;100.00
25759;BME280;13604;52.496;13.456;2023-03-25T02:25:47;99845.53;;;6.54;100.00
25759;BME280;13604;52.496;13.456;2023-03-25T02:28:38;99847.06;;;6.69;100.00
25759;BME280;13604;52.496;13.456;2023-03-25T02:31:29;99856.06;;;6.77;100.00
25759;BME280;13604;52.496;13.456;2023-03-25T02:34:19;99836.66;;;6.67;100.00
25759;BME280;13604;52.496;13.456;2023-03-25T02:42:16;99848.47;;;6.99;100.00
25759;BME280;13604;52.496;13.456;2023-03-25T02:44:56;99829.59;;;7.02;100.00
25759;BME280;13604;52.496;13.456;2023-03-25T02:47:26;99833.81;;;7.00;100.00
25759;BME280;13604;52.496;13.456;2023-03-25T02:50:04;99826.59;;;6.93;100.00
25759;BME280;13604;52.496;13.456;2023-03-25T02:52:40;99831.94;;;6.96;100.00
25759;BME280;13604;52.496;13.456;2023-03-25T02:55:10;99820.41;;;6.89;100.00
25759;BME280;13604;52.496;13.456;2023-03-25T02:57:41;99832.09;;;7.00;100.00
25759;BME280;13604;52.496;13.456;2023-03-25T03:00:09;99810.13;;;6.91;100.00
25759;BME280;13604;52.496;13.456;2023-03-25T03:02:42;99826.81;;;6.97;100.00
25759;BME280;13604;52.496;13.456;2023-03-25T03:05:33;99824.34;;;7.00;100.00
25759;BME280;13604;52.496;13.456;2023-03-25T03:08:13;99825.25;;;7.01;100.00
25759;BME280;13604;52.496;13.456;2023-03-25T03:11:06;99825.25;;;7.01;100.00
25759;BME280;13604;52.496;13.456;2023-03-25T03:16:48;99810.25;;;7.13;100.00
25759;BME280;13604;52.496;13.456;2023-03-25T03:19:39;99819.09;;;7.18;100.00
25759;BME280;13604;52.496;13.456;2023-03-25T03:22:22;99837.44;;;7.23;100.00
25759;BME280;13604;52.496;13.456;2023-03-25T03:25:07;99819.22;;;7.22;100.00
25759;BME280;13604;52.496;13.456;2023-03-25T03:27:39;99820.25;;;7.25;100.00
25759;BME280;13604;52.496;13.456;2023-03-25T03:30:21;99823.88;;;7.29;100.00
25759;BME280;13604;52.496;13.456;2023-03-25T03:32:55;99838.19;;;7.40;100.00
25759;BME280;13604;52.496;13.456;2023-03-25T03:35:59;99809.78;;;7.22;100.00
25759;BME280;13604;52.496;13.456;2023-03-25T03:38:30;99843.91;;;7.33;100.00
25759;BME280;13604;52.496;13.456;2023-03-25T03:41:01;99852.09;;;7.23;100.00
25759;BME280;13604;52.496;13.456;2023-03-25T03:43:50;99846.69;;;7.18;100.00
25759;BME280;13604;52.496;13.456;2023-03-25T03:46:22;99842.59;;;7.04;100.00
25759;BME280;13604;52.496;13.456;2023-03-25T03:48:54;99846.56;;;6.95;100.00
25759;BME280;13604;52.496;13.456;2023-03-25T03:53:57;99849.06;;;6.94;100.00
25759;BME280;13604;52.496;13.456;2023-03-25T03:56:28;99816.97;;;6.71;100.00
25759;BME280;13604;52.496;13.456;2023-03-25T03:59:03;99836.75;;;6.88;100.00
25759;BME280;13604;52.496;13.456;2023-03-25T04:01:34;99843.34;;;6.81;100.00
25759;BME280;13604;52.496;13.456;2023-03-25T04:04:05;99836.47;;;6.82;100.00
25759;BME280;13604;52.496;13.456;2023-03-25T04:06:40;99815.72;;;6.62;100.00
25759;BME280;13604;52.496;13.456;2023-03-25T04:09:15;99830.13;;;6.75;100.00
25759;BME280;13604;52.496;13.456;2023-03-25T04:11:49;99828.38;;;6.74;100.00
25759;BME280;13604;52.496;13.456;2023-03-25T04:14:17;99826.38;;;6.69;100.00
25759;BME280;13604;52.496;13.456;2023-03-25T04:16:42;99808.88;;;6.63;100.00
25759;BME280;13604;52.496;13.456;2023-03-25T04:19:10;99813.38;;;6.67;100.00
25759;BME280;13604;52.496;13.456;2023-03-25T04:21:38;99828.41;;;6.76;100.00
25759;BME280;13604;52.496;13.456;2023-03-25T04:24:03;99837.16;;;6.78;100.00
25759;BME280;13604;52.496;13.456;2023-03-25T04:26:33;99825.56;;;6.70;100.00
25759;BME280;13604;52.496;13.456;2023-03-25T04:29:02;99833.81;;;6.80;100.00
25759;BME280;13604;52.496;13.456;2023-03-25T04:31:28;99816.25;;;6.73;100.00
25759;BME280;13604;52.496;13.456;2023-03-25T04:33:57;99833.94;;;6.84;100.00
25759;BME280;13604;52.496;13.456;2023-03-25T04:36:24;99827.69;;;6.78;100.00
25759;BME280;13604;52.496;13.456;2023-03-25T04:38:53;99834.81;;;6.84;100.00
25759;BME280;13604;52.496;13.456;2023-03-25T04:41:20;99839.34;;;6.88;100.00
25759;BME280;13604;52.496;13.456;2023-03-25T04:43:45;99830.63;;;6.86;100.00
25759;BME280;13604;52.496;13.456;2023-03-25T04:46:12;99841.94;;;6.88;100.00
25759;BME280;13604;52.496;13.456;2023-03-25T04:48:38;99828.63;;;6.80;100.00
25759;BME280;13604;52.496;13.456;2023-03-25T04:51:06;99845.00;;;6.79;100.00
25759;BME280;13604;52.496;13.456;2023-03-25T04:53:34;99823.22;;;6.76;100.00
25759;BME280;13604;52.496;13.456;2023-03-25T04:56:00;99826.38;;;6.69;100.00
25759;BME280;13604;52.496;13.456;2023-03-25T04:58:25;99832.09;;;6.61;100.00
25759;BME280;13604;52.496;13.456;2023-03-25T05:00:51;99821.66;;;6.60;100.00
25759;BME280;13604;52.496;13.456;2023-03-25T05:03:17;99834.69;;;6.61;100.00
25759;BME280;13604;52.496;13.456;2023-03-25T05:05:48;99820.34;;;6.50;100.00
25759;BME280;13604;52.496;13.456;2023-03-25T05:08:13;99831.09;;;6.59;100.00
25759;BME280;13604;52.496;13.456;2023-03-25T05:10:38;99832.88;;;6.60;100.00
25759;BME280;13604;52.496;13.456;2023-03-25T05:13:06;99830.16;;;6.57;100.00
25759;BME280;13604;52.496;13.456;2023-03-25T05:15:32;99821.16;;;6.49;100.00
25759;BME280;13604;52.496;13.456;2023-03-25T05:18:05;99809.50;;;6.39;100.00
25759;BME280;13604;52.496;13.456;2023-03-25T05:20:33;99822.00;;;6.48;100.00
25759;BME280;13604;52.496;13.456;2023-03-25T05:22:59;99823.66;;;6.48;100.00
25759;BME280;13604;52.496;13.456;2023-03-25T05:25:24;99820.81;;;6.41;100.00
25759;BME280;13604;52.496;13.456;2023-03-25T05:27:50;99824.59;;;6.30;100.00
25759;BME280;13604;52.496;13.456;2023-03-25T05:30:15;99828.28;;;6.35;100.00
25759;BME280;13604;52.496;13.456;2023-03-25T05:32:40;99830.88;;;6.35;100.00
25759;BME280;13604;52.496;13.456;2023-03-25T05:35:06;99816.69;;;6.27;100.00
25759;BME280;13604;52.496;13.456;2023-03-25T05:37:31;99806.19;;;6.24;100.00
25759;BME280;13604;52.496;13.456;2023-03-25T05:39:57;99820.53;;;6.35;100.00
25759;BME280;13604;52.496;13.456;2023-03-25T05:42:22;99845.94;;;6.44;100.00
25759;BME280;13604;52.496;13.456;2023-03-25T05:44:49;99823.41;;;6.61;100.00
25759;BME280;13604;52.496;13.456;2023-03-25T05:47:22;99823.84;;;6.70;100.00
25759;BME280;13604;52.496;13.456;2023-03-25T05:49:48;99826.59;;;6.73;100.00
25759;BME280;13604;52.496;13.456;2023-03-25T05:52:15;99835.88;;;6.88;100.00
25759;BME280;13604;52.496;13.456;2023-03-25T05:54:41;99792.53;;;6.84;100.00
25759;BME280;13604;52.496;13.456;2023-03-25T05:57:07;99824.56;;;7.05;100.00
25759;BME280;13604;52.496;13.456;2023-03-25T05:59:33;99845.06;;;7.20;100.00
25759;BME280;13604;52.496;13.456;2023-03-25T06:02:03;99841.66;;;7.21;100.00
25759;BME280;13604;52.496;13.456;2023-03-25T06:04:28;99846.91;;;7.23;100.00
25759;BME280;13604;52.496;13.456;2023-03-25T06:06:53;99831.09;;;7.16;100.00
25759;BME280;13604;52.496;13.456;2023-03-25T06:09:18;99855.19;;;7.35;100.00
25759;BME280;13604;52.496;13.456;2023-03-25T06:11:44;99841.31;;;7.33;100.00
25759;BME280;13604;52.496;13.456;2023-03-25T06:14:10;99876.56;;;7.49;100.00
25759;BME280;13604;52.496;13.456;2023-03-25T06:16:36;99848.94;;;7.49;100.00
25759;BME280;13604;52.496;13.456;2023-03-25T06:19:02;99851.59;;;7.51;100.00
25759;BME280;13604;52.496;13.456;2023-03-25T06:21:29;99857.63;;;7.51;100.00
25759;BME280;13604;52.496;13.456;2023-03-25T06:23:57;99859.00;;;7.43;100.00
25759;BME280;13604;52.496;13.456;2023-03-25T06:26:23;99850.94;;;7.35;100.00
25759;BME280;13604;52.496;13.456;2023-03-25T06:28:49;99873.97;;;7.49;100.00
25759;BME280;13604;52.496;13.456;2023-03-25T06:31:17;99869.34;;;7.63;100.00
25759;BME280;13604;52.496;13.456;2023-03-25T06:33:44;99875.63;;;7.68;100.00
25759;BME280;13604;52.496;13.456;2023-03-25T06:36:12;99859.59;;;7.77;100.00
25759;BME280;13604;52.496;13.456;2023-03-25T06:38:38;99876.09;;;8.00;100.00
25759;BME280;13604;52.496;13.456;2023-03-25T06:41:04;99873.88;;;8.09;100.00
25759;BME280;13604;52.496;13.456;2023-03-25T06:43:31;99878.00;;;8.25;100.00
25759;BME280;13604;52.496;13.456;2023-03-25T06:45:56;99843.59;;;8.08;98.23
25759;BME280;13604;52.496;13.456;2023-03-25T06:48:22;99841.34;;;8.17;98.72
25759;BME280;13604;52.496;13.456;2023-03-25T06:50:47;99842.31;;;8.19;98.33
25759;BME280;13604;52.496;13.456;2023-03-25T06:53:12;99868.13;;;8.37;97.66
25759;BME280;13604;52.496;13.456;2023-03-25T06:55:38;99866.41;;;8.38;97.92
25759;BME280;13604;52.496;13.456;2023-03-25T06:58:04;99860.22;;;8.34;98.11
25759;BME280;13604;52.496;13.456;2023-03-25T07:00:29;99849.25;;;8.20;98.96
25759;BME280;13604;52.496;13.456;2023-03-25T07:02:55;99861.16;;;8.15;99.95
25759;BME280;13604;52.496;13.456;2023-03-25T07:05:20;99853.25;;;8.12;98.50
25759;BME280;13604;52.496;13.456;2023-03-25T07:07:46;99812.97;;;7.99;98.70
25759;BME280;13604;52.496;13.456;2023-03-25T07:10:12;99858.97;;;8.45;98.17
25759;BME280;13604;52.496;13.456;2023-03-25T07:12:37;99847.81;;;8.71;96.41
25759;BME280;13604;52.496;13.456;2023-03-25T07:15:03;99885.28;;;9.00;93.12
25759;BME280;13604;52.496;13.456;2023-03-25T07:17:28;99858.75;;;9.09;92.55
25759;BME280;13604;52.496;13.456;2023-03-25T07:19:53;99859.31;;;9.48;91.30
25759;BME280;13604;52.496;13.456;2023-03-25T07:22:18;99870.41;;;9.94;88.18
25759;BME280;13604;52.496;13.456;2023-03-25T07:24:44;99868.84;;;9.99;86.28
25759;BME280;13604;52.496;13.456;2023-03-25T07:27:13;99891.84;;;10.38;83.99
25759;BME280;13604;52.496;13.456;2023-03-25T07:29:39;99869.91;;;10.31;82.50
25759;BME280;13604;52.496;13.456;2023-03-25T07:32:05;99856.13;;;10.61;82.39
25759;BME280;13604;52.496;13.456;2023-03-25T07:34:30;99859.47;;;10.86;80.23
25759;BME280;13604;52.496;13.456;2023-03-25T07:36:55;99864.66;;;11.16;76.98
25759;BME280;13604;52.496;13.456;2023-03-25T07:39:21;99885.63;;;11.50;75.10
25759;BME280;13604;52.496;13.456;2023-03-25T07:41:52;99883.72;;;11.76;74.14
25759;BME280;13604;52.496;13.456;2023-03-25T07:44:18;99877.03;;;11.87;71.78
25759;BME280;13604;52.496;13.456;2023-03-25T07:46:46;99878.91;;;11.91;72.22
25759;BME280;13604;52.496;13.456;2023-03-25T07:49:12;99870.88;;;12.17;68.82
25759;BME280;13604;52.496;13.456;2023-03-25T07:51:38;99875.34;;;12.99;66.79
25759;BME280;13604;52.496;13.456;2023-03-25T07:54:03;99865.22;;;12.73;63.99
25759;BME280;13604;52.496;13.456;2023-03-25T07:56:29;99879.25;;;12.40;65.14
25759;BME280;13604;52.496;13.456;2023-03-25T07:58:54;99880.25;;;12.83;65.56
25759;BME280;13604;52.496;13.456;2023-03-25T08:01:19;99879.84;;;13.04;64.34
25759;BME280;13604;52.496;13.456;2023-03-25T08:03:45;99886.13;;;12.37;64.98
25759;BME280;13604;52.496;13.456;2023-03-25T08:06:10;99883.69;;;12.08;66.22
25759;BME280;13604;52.496;13.456;2023-03-25T08:08:35;99882.81;;;11.75;65.76
25759;BME280;13604;52.496;13.456;2023-03-25T08:11:00;99899.38;;;11.76;66.07
25759;BME280;13604;52.496;13.456;2023-03-25T08:13:26;99883.75;;;11.79;65.48
25759;BME280;13604;52.496;13.456;2023-03-25T08:15:51;99888.41;;;11.57;66.64
25759;BME280;13604;52.496;13.456;2023-03-25T08:18:17;99855.47;;;11.93;63.78
25759;BME280;13604;52.496;13.456;2023-03-25T08:20:42;99865.38;;;12.43;63.57
25759;BME280;13604;52.496;13.456;2023-03-25T08:23:08;99875.75;;;12.78;62.37
25759;BME280;13604;52.496;13.456;2023-03-25T08:25:39;99874.25;;;12.89;61.38
25759;BME280;13604;52.496;13.456;2023-03-25T08:28:05;99869.78;;;12.44;61.94
25759;BME280;13604;52.496;13.456;2023-03-25T08:30:31;99856.75;;;12.85;61.46
25759;BME280;13604;52.496;13.456;2023-03-25T08:33:04;99865.22;;;13.14;59.48
25759;BME280;13604;52.496;13.456;2023-03-25T08:35:29;99875.53;;;13.96;59.03
25759;BME280;13604;52.496;13.456;2023-03-25T08:37:54;99888.69;;;14.54;56.23
25759;BME280;13604;52.496;13.456;2023-03-25T08:40:19;99876.16;;;14.35;55.65
25759;BME280;13604;52.496;13.456;2023-03-25T08:42:45;99857.53;;;13.66;57.33
25759;BME280;13604;52.496;13.456;2023-03-25T08:45:11;99867.03;;;13.18;57.12
25759;BME280;13604;52.496;13.456;2023-03-25T08:47:37;99870.84;;;12.92;60.07
25759;BME280;13604;52.496;13.456;2023-03-25T08:50:03;99858.31;;;12.37;58.06
25759;BME280;13604;52.496;13.456;2023-03-25T08:52:28;99875.63;;;12.35;60.46
25759;BME280;13604;52.496;13.456;2023-03-25T08:54:53;99860.06;;;12.03;59.49
25759;BME280;13604;52.496;13.456;2023-03-25T08:57:19;99868.53;;;11.93;61.19
25759;BME280;13604;52.496;13.456;2023-03-25T08:59:44;99860.41;;;12.54;60.32
25759;BME280;13604;52.496;13.456;2023-03-25T09:02:10;99841.22;;;12.15;59.36
25759;BME280;13604;52.496;13.456;2023-03-25T09:04:36;99841.28;;;11.83;60.01
25759;BME280;13604;52.496;13.456;2023-03-25T09:07:03;99871.72;;;11.51;60.59
25759;BME280;13604;52.496;13.456;2023-03-25T09:09:28;99882.56;;;11.34;61.85
25759;BME280;13604;52.496;13.456;2023-03-25T09:11:54;99849.50;;;11.32;63.03
25759;BME280;13604;52.496;13.456;2023-03-25T09:14:19;99879.09;;;11.34;63.08
25759;BME280;13604;52.496;13.456;2023-03-25T09:16:44;99882.41;;;11.30;62.25
25759;BME280;13604;52.496;13.456;2023-03-25T09:19:10;99843.69;;;11.10;62.85
25759;BME280;13604;52.496;13.456;2023-03-25T09:21:35;99858.13;;;11.31;63.83
25759;BME280;13604;52.496;13.456;2023-03-25T09:24:00;99867.38;;;11.83;62.81
25759;BME280;13604;52.496;13.456;2023-03-25T09:26:26;99868.66;;;13.12;57.53
25759;BME280;13604;52.496;13.456;2023-03-25T09:28:52;99874.84;;;13.17;56.26
25759;BME280;13604;52.496;13.456;2023-03-25T09:31:19;99851.22;;;12.71;57.67
25759;BME280;13604;52.496;13.456;2023-03-25T09:33:44;99871.94;;;12.62;58.62
25759;BME280;13604;52.496;13.456;2023-03-25T09:36:10;99874.25;;;12.13;59.13
25759;BME280;13604;52.496;13.456;2023-03-25T09:38:35;99895.81;;;11.42;60.89
25759;BME280;13604;52.496;13.456;2023-03-25T09:41:11;99881.47;;;11.26;62.11
25759;BME280;13604;52.496;13.456;2023-03-25T09:44:04;99872.41;;;11.13;62.14
25759;BME280;13604;52.496;13.456;2023-03-25T09:46:36;99876.59;;;11.08;61.92
25759;BME280;13604;52.496;13.456;2023-03-25T09:49:01;99897.47;;;11.38;60.53
25759;BME280;13604;52.496;13.456;2023-03-25T09:51:29;99868.50;;;11.59;59.94
25759;BME280;13604;52.496;13.456;2023-03-25T09:54:03;99884.53;;;12.07;59.28
25759;BME280;13604;52.496;13.456;2023-03-25T09:56:36;99859.88;;;12.30;57.93
25759;BME280;13604;52.496;13.456;2023-03-25T09:59:06;99885.06;;;13.04;56.24
25759;BME280;13604;52.496;13.456;2023-03-25T10:01:50;99877.22;;;13.46;54.39
25759;BME280;13604;52.496;13.456;2023-03-25T10:07:32;99881.25;;;14.81;49.38
25759;BME280;13604;52.496;13.456;2023-03-25T10:10:20;99874.16;;;13.70;51.85
25759;BME280;13604;52.496;13.456;2023-03-25T10:21:06;99902.31;;;11.56;56.96
25759;BME280;13604;52.496;13.456;2023-03-25T10:23:44;99872.19;;;11.69;56.31
25759;BME280;13604;52.496;13.456;2023-03-25T10:26:42;99873.41;;;12.14;55.71
25759;BME280;13604;52.496;13.456;2023-03-25T10:29:18;99862.31;;;13.00;53.07
25759;BME280;13604;52.496;13.456;2023-03-25T10:31:53;99863.06;;;13.83;50.77
25759;BME280;13604;52.496;13.456;2023-03-25T10:34:29;99841.81;;;16.35;45.28
25759;BME280;13604;52.496;13.456;2023-03-25T10:36:59;99863.19;;;15.76;46.29
25759;BME280;13604;52.496;13.456;2023-03-25T10:39:30;99860.72;;;15.15;46.01
25759;BME280;13604;52.496;13.456;2023-03-25T10:42:15;99864.47;;;13.64;49.48
25759;BME280;13604;52.496;13.456;2023-03-25T10:44:44;99857.16;;;12.64;51.45
25759;BME280;13604;52.496;13.456;2023-03-25T10:47:14;99851.66;;;12.51;53.11
25759;BME280;13604;52.496;13.456;2023-03-25T10:49:41;99839.13;;;14.68;49.74
25759;BME280;13604;52.496;13.456;2023-03-25T10:52:08;99845.13;;;16.13;45.43
25759;BME280;13604;52.496;13.456;2023-03-25T10:54:38;99844.84;;;17.00;43.47
25759;BME280;13604;52.496;13.456;2023-03-25T10:57:07;99860.06;;;18.58;40.30
25759;BME280;13604;52.496;13.456;2023-03-25T10:59:40;99862.31;;;20.78;36.46
25759;BME280;13604;52.496;13.456;2023-03-25T11:02:14;99852.66;;;21.50;34.96
25759;BME280;13604;52.496;13.456;2023-03-25T11:04:43;99844.91;;;22.48;33.64
25759;BME280;13604;52.496;13.456;2023-03-25T11:07:24;99835.16;;;23.41;31.56
25759;BME280;13604;52.496;13.456;2023-03-25T11:09:51;99849.81;;;20.91;34.42
25759;BME280;13604;52.496;13.456;2023-03-25T11:12:18;99844.25;;;18.12;38.88
25759;BME280;13604;52.496;13.456;2023-03-25T11:14:53;99851.00;;;15.81;43.72
25759;BME280;13604;52.496;13.456;2023-03-25T11:17:18;99845.84;;;14.51;46.83
25759;BME280;13604;52.496;13.456;2023-03-25T11:19:55;99854.19;;;14.25;47.97
25759;BME280;13604;52.496;13.456;2023-03-25T11:22:24;99854.78;;;14.09;49.79
25759;BME280;13604;52.496;13.456;2023-03-25T11:24:53;99831.28;;;16.32;44.23
25759;BME280;13604;52.496;13.456;2023-03-25T11:27:26;99827.59;;;17.95;41.21
25759;BME280;13604;52.496;13.456;2023-03-25T11:30:02;99797.66;;;17.53;41.38
25759;BME280;13604;52.496;13.456;2023-03-25T11:32:37;99817.31;;;16.43;43.38
25759;BME280;13604;52.496;13.456;2023-03-25T11:35:24;99823.66;;;14.85;46.83
25759;BME280;13604;52.496;13.456;2023-03-25T11:37:58;99823.66;;;16.74;44.35
25759;BME280;13604;52.496;13.456;2023-03-25T11:40:26;99825.13;;;16.27;43.95
25759;BME280;13604;52.496;13.456;2023-03-25T11:42:54;99821.41;;;15.18;45.90
25759;BME280;13604;52.496;13.456;2023-03-25T11:45:35;99829.59;;;14.73;47.29
25759;BME280;13604;52.496;13.456;2023-03-25T11:48:21;99823.06;;;13.90;48.77
25759;BME280;13604;52.496;13.456;2023-03-25T11:50:49;99830.44;;;13.18;51.18
25759;BME280;13604;52.496;13.456;2023-03-25T11:53:18;99810.81;;;12.54;52.95
25759;BME280;13604;52.496;13.456;2023-03-25T11:55:50;99820.59;;;12.64;54.75
25759;BME280;13604;52.496;13.456;2023-03-25T11:58:20;99823.63;;;13.72;51.18
25759;BME280;13604;52.496;13.456;2023-03-25T12:00:51;99831.00;;;15.14;48.33
25759;BME280;13604;52.496;13.456;2023-03-25T12:03:27;99811.88;;;16.10;45.89
25759;BME280;13604;52.496;13.456;2023-03-25T12:06:28;99817.38;;;16.49;45.82
25759;BME280;13604;52.496;13.456;2023-03-25T12:08:59;99814.50;;;16.13;46.96
25759;BME280;13604;52.496;13.456;2023-03-25T12:11:31;99790.47;;;16.90;45.24
25759;BME280;13604;52.496;13.456;2023-03-25T12:19:52;99795.84;;;15.79;46.30
25759;BME280;13604;52.496;13.456;2023-03-25T12:27:58;99765.59;;;15.31;45.79
25759;BME280;13604;52.496;13.456;2023-03-25T12:33:33;99783.34;;;14.76;46.57
25759;BME280;13604;52.496;13.456;2023-03-25T12:36:19;99782.19;;;13.98;47.85
25759;BME280;13604;52.496;13.456;2023-03-25T12:38:58;99772.63;;;14.01;47.50
25759;BME280;13604;52.496;13.456;2023-03-25T12:41:48;99775.75;;;13.78;48.70
25759;BME280;13604;52.496;13.456;2023-03-25T12:47:13;99780.22;;;15.96;45.52
25759;BME280;13604;52.496;13.456;2023-03-25T12:50:15;99780.59;;;16.49;42.94
25759;BME280;13604;52.496;13.456;2023-03-25T12:52:54;99757.91;;;16.68;42.94
25759;BME280;13604;52.496;13.456;2023-03-25T12:55:32;99756.41;;;17.64;41.38
25759;BME280;13604;52.496;13.456;2023-03-25T12:58:16;99746.69;;;17.14;41.50
25759;BME280;13604;52.496;13.456;2023-03-25T13:00:51;99765.16;;;17.40;41.67
25759;BME280;13604;52.496;13.456;2023-03-25T13:06:15;99745.31;;;16.10;43.76
25759;BME280;13604;52.496;13.456;2023-03-25T13:08:53;99771.56;;;14.49;47.15
25759;BME280;13604;52.496;13.456;2023-03-25T13:11:26;99731.09;;;13.66;49.08
25759;BME280;13604;52.496;13.456;2023-03-25T13:13:56;99759.22;;;13.32;50.88
25759;BME280;13604;52.496;13.456;2023-03-25T13:16:26;99764.53;;;12.91;52.59
25759;BME280;13604;52.496;13.456;2023-03-25T13:19:01;99760.81;;;12.38;55.08
25759;BME280;13604;52.496;13.456;2023-03-25T13:21:30;99787.44;;;11.87;56.70
25759;BME280;13604;52.496;13.456;2023-03-25T13:24:00;99799.75;;;11.24;62.31
25759;BME280;13604;52.496;13.456;2023-03-25T13:26:29;99811.66;;;10.84;69.37
25759;BME280;13604;52.496;13.456;2023-03-25T13:28:59;99795.03;;;11.77;69.84
25759;BME280;13604;52.496;13.456;2023-03-25T13:31:28;99776.75;;;11.09;71.06
25759;BME280;13604;52.496;13.456;2023-03-25T13:36:36;99797.34;;;10.13;76.74
25759;BME280;13604;52.496;13.456;2023-03-25T13:39:12;99816.75;;;9.70;77.32
25759;BME280;13604;52.496;13.456;2023-03-25T13:44:15;99801.03;;;8.46;84.97
25759;BME280;13604;52.496;13.456;2023-03-25T13:46:47;99809.94;;;8.09;84.81
25759;BME280;13604;52.496;13.456;2023-03-25T13:49:22;99808.97;;;7.85;88.15
25759;BME280;13604;52.496;13.456;2023-03-25T13:51:50;99804.97;;;7.72;90.69
25759;BME280;13604;52.496;13.456;2023-03-25T13:54:24;99815.19;;;7.69;92.17
25759;BME280;13604;52.496;13.456;2023-03-25T13:57:01;99814.13;;;7.85;94.60
25759;BME280;13604;52.496;13.456;2023-03-25T14:02:15;99812.75;;;7.93;94.92